PWSweather.com
Personal Weather Stations
Station Observations
ITROMSHA6
HarstadNO 9407

HarstadNO 9407

Lat: 68.7814767, Lon: 16.5297091

Elevation: 145

Station Type: Davis Vantage Pro2

High Low Average
Temperature 45.6°F7.6°C 36.2°F2.3°C 40.6°F4.8°C
Dew Point 38.7°F3.7°C 34.0°F1.1°C 36.5°F2.5°C
Winds 9.0 mph 14.5 kmh Calm Calm 3.0 mph SW4.8 kmh SW
Wind Gusts 10.0 mph16.1 kmh -- 1.0 mph1.6 kmh
Humidity 93% 70% 85%
Pressure 29.96 in1014.6 mb 29.80 in1009.1 mb -
Precipitation 0.10 in2.5 mm - -
Hour Temp Dew Point Humidity Winds Wind Gusts Pressure Precip Precip Rate Daily Precip Total
12:00 AM 37.4°F3.0°C 35.2°F1.8°C 92% 3.0 mph SW4.8 kmh SW -- 29.96 in1014.6 mb 0.01 in0.3 mm 0.00 in0.0 mm 0.01 in0.3 mm
12:05 AM 37.5°F3.1°C 35.4°F1.9°C 92% 3.0 mph SW4.8 kmh SW 3.0 mph4.8 kmh 29.96 in1014.6 mb 0.01 in0.3 mm 0.00 in0.0 mm 0.01 in0.3 mm
12:10 AM 37.5°F3.1°C 35.4°F1.9°C 92% 1.0 mph SW1.6 kmh SW -- 29.96 in1014.6 mb 0.01 in0.3 mm 0.00 in0.0 mm 0.01 in0.3 mm
12:15 AM 37.5°F3.1°C 35.4°F1.9°C 92% Calm Calm -- 29.96 in1014.6 mb 0.01 in0.3 mm 0.00 in0.0 mm 0.01 in0.3 mm
12:20 AM 37.4°F3.0°C 35.2°F1.8°C 92% Calm Calm -- 29.95 in1014.2 mb 0.01 in0.3 mm 0.00 in0.0 mm 0.01 in0.3 mm
12:25 AM 37.1°F2.8°C 34.9°F1.6°C 92% 2.0 mph SW3.2 kmh SW -- 29.95 in1014.2 mb 0.02 in0.5 mm 0.12 in3.0 mm 0.02 in0.5 mm
12:30 AM 36.7°F2.6°C 34.5°F1.4°C 92% 2.0 mph WSW3.2 kmh WSW 4.0 mph6.4 kmh 29.95 in1014.2 mb 0.02 in0.5 mm 0.00 in0.0 mm 0.02 in0.5 mm
12:35 AM 36.9°F2.7°C 34.7°F1.5°C 92% 2.0 mph WSW3.2 kmh WSW -- 29.95 in1014.2 mb 0.01 in0.3 mm 0.00 in0.0 mm 0.02 in0.5 mm
12:40 AM 36.9°F2.7°C 34.7°F1.5°C 92% 1.0 mph WSW1.6 kmh WSW -- 29.95 in1014.2 mb 0.01 in0.3 mm 0.00 in0.0 mm 0.02 in0.5 mm
12:45 AM 37.2°F2.9°C 35.1°F1.7°C 92% 2.0 mph SW3.2 kmh SW -- 29.95 in1014.2 mb 0.01 in0.3 mm 0.00 in0.0 mm 0.02 in0.5 mm
12:50 AM 37.2°F2.9°C 35.1°F1.7°C 92% Calm Calm -- 29.95 in1014.2 mb 0.01 in0.3 mm 0.00 in0.0 mm 0.02 in0.5 mm
12:55 AM 36.9°F2.7°C 34.5°F1.4°C 91% Calm Calm 2.0 mph3.2 kmh 29.96 in1014.6 mb 0.01 in0.3 mm 0.00 in0.0 mm 0.02 in0.5 mm
01:00 AM 36.4°F2.4°C 34.0°F1.1°C 91% Calm Calm -- 29.96 in1014.6 mb 0.01 in0.3 mm 0.00 in0.0 mm 0.02 in0.5 mm
01:05 AM 36.2°F2.3°C 34.0°F1.1°C 92% 2.0 mph SW3.2 kmh SW -- 29.96 in1014.6 mb 0.01 in0.3 mm 0.00 in0.0 mm 0.02 in0.5 mm
01:10 AM 36.5°F2.5°C 34.3°F1.3°C 92% 2.0 mph SW3.2 kmh SW -- 29.96 in1014.6 mb 0.01 in0.3 mm 0.00 in0.0 mm 0.02 in0.5 mm
01:15 AM 36.8°F2.7°C 35.1°F1.7°C 93% Calm Calm -- 29.95 in1014.2 mb 0.01 in0.3 mm 0.00 in0.0 mm 0.02 in0.5 mm
01:20 AM 36.9°F2.7°C 35.1°F1.7°C 93% Calm Calm 2.0 mph3.2 kmh 29.95 in1014.2 mb 0.01 in0.3 mm 0.00 in0.0 mm 0.02 in0.5 mm
01:25 AM 37.0°F2.8°C 35.2°F1.8°C 93% Calm Calm -- 29.96 in1014.6 mb 0.01 in0.3 mm 0.00 in0.0 mm 0.02 in0.5 mm
01:30 AM 37.1°F2.8°C 35.2°F1.8°C 93% 2.0 mph SW3.2 kmh SW -- 29.96 in1014.6 mb 0.01 in0.3 mm 0.00 in0.0 mm 0.02 in0.5 mm
01:35 AM 37.5°F3.1°C 35.8°F2.1°C 93% Calm Calm -- 29.96 in1014.6 mb 0.01 in0.3 mm 0.00 in0.0 mm 0.02 in0.5 mm
01:40 AM 37.7°F3.2°C 36.0°F2.2°C 93% 2.0 mph SW3.2 kmh SW -- 29.95 in1014.2 mb 0.01 in0.3 mm 0.00 in0.0 mm 0.02 in0.5 mm
01:45 AM 38.2°F3.4°C 36.3°F2.4°C 93% 1.0 mph S1.6 kmh S 4.0 mph6.4 kmh 29.95 in1014.2 mb 0.01 in0.3 mm 0.00 in0.0 mm 0.02 in0.5 mm
01:50 AM 38.3°F3.5°C 36.5°F2.5°C 93% 1.0 mph SSW1.6 kmh SSW -- 29.95 in1014.2 mb 0.01 in0.3 mm 0.00 in0.0 mm 0.02 in0.5 mm
01:55 AM 38.4°F3.6°C 36.7°F2.6°C 93% Calm Calm -- 29.95 in1014.2 mb 0.01 in0.3 mm 0.00 in0.0 mm 0.02 in0.5 mm
02:00 AM 38.5°F3.6°C 36.7°F2.6°C 93% 2.0 mph SW3.2 kmh SW -- 29.95 in1014.2 mb 0.01 in0.3 mm 0.00 in0.0 mm 0.02 in0.5 mm
02:05 AM 38.5°F3.6°C 36.3°F2.4°C 92% 1.0 mph S1.6 kmh S -- 29.95 in1014.2 mb 0.01 in0.3 mm 0.00 in0.0 mm 0.02 in0.5 mm
02:10 AM 38.5°F3.6°C 36.3°F2.4°C 92% 1.0 mph SSW1.6 kmh SSW 6.0 mph9.7 kmh 29.95 in1014.2 mb 0.01 in0.3 mm 0.00 in0.0 mm 0.02 in0.5 mm
02:15 AM 38.6°F3.7°C 36.5°F2.5°C 92% 5.0 mph SW8.0 kmh SW -- 29.95 in1014.2 mb 0.01 in0.3 mm 0.00 in0.0 mm 0.02 in0.5 mm
02:20 AM 38.6°F3.7°C 36.5°F2.5°C 92% 1.0 mph SW1.6 kmh SW -- 29.94 in1013.9 mb 0.01 in0.3 mm 0.00 in0.0 mm 0.02 in0.5 mm
02:25 AM 38.5°F3.6°C 36.3°F2.4°C 92% 3.0 mph SSW4.8 kmh SSW -- 29.95 in1014.2 mb 0.01 in0.3 mm 0.00 in0.0 mm 0.03 in0.8 mm
02:30 AM 39.0°F3.9°C 36.9°F2.7°C 92% 3.0 mph SSW4.8 kmh SSW -- 29.95 in1014.2 mb 0.01 in0.3 mm 0.00 in0.0 mm 0.03 in0.8 mm
02:35 AM 39.2°F4.0°C 36.9°F2.7°C 91% 2.0 mph SW3.2 kmh SW 9.0 mph14.5 kmh 29.95 in1014.2 mb 0.01 in0.3 mm 0.00 in0.0 mm 0.03 in0.8 mm
02:40 AM 39.2°F4.0°C 36.9°F2.7°C 91% 2.0 mph SW3.2 kmh SW -- 29.95 in1014.2 mb 0.01 in0.3 mm 0.00 in0.0 mm 0.03 in0.8 mm
02:45 AM 39.2°F4.0°C 36.9°F2.7°C 91% 3.0 mph SW4.8 kmh SW -- 29.95 in1014.2 mb 0.01 in0.3 mm 0.00 in0.0 mm 0.03 in0.8 mm
02:50 AM 39.1°F3.9°C 36.7°F2.6°C 91% 2.0 mph SW3.2 kmh SW -- 29.94 in1013.9 mb 0.01 in0.3 mm 0.00 in0.0 mm 0.03 in0.8 mm
02:55 AM 38.6°F3.7°C 36.3°F2.4°C 91% 4.0 mph SW6.4 kmh SW -- 29.94 in1013.9 mb 0.01 in0.3 mm 0.00 in0.0 mm 0.03 in0.8 mm
03:00 AM 38.4°F3.6°C 36.1°F2.3°C 91% 3.0 mph W4.8 kmh W 5.0 mph8.0 kmh 29.94 in1013.9 mb 0.01 in0.3 mm 0.00 in0.0 mm 0.03 in0.8 mm
03:05 AM 38.6°F3.7°C 36.3°F2.4°C 91% 4.0 mph WSW6.4 kmh WSW -- 29.94 in1013.9 mb 0.01 in0.3 mm 0.00 in0.0 mm 0.03 in0.8 mm
03:10 AM 38.8°F3.8°C 36.5°F2.5°C 91% 4.0 mph SW6.4 kmh SW -- 29.94 in1013.9 mb 0.01 in0.3 mm 0.00 in0.0 mm 0.03 in0.8 mm
03:15 AM 38.8°F3.8°C 36.5°F2.5°C 91% 5.0 mph SSW8.0 kmh SSW -- 29.94 in1013.9 mb 0.01 in0.3 mm 0.00 in0.0 mm 0.03 in0.8 mm
03:20 AM 38.6°F3.7°C 36.3°F2.4°C 91% 3.0 mph WSW4.8 kmh WSW -- 29.94 in1013.9 mb 0.01 in0.3 mm 0.00 in0.0 mm 0.03 in0.8 mm
03:25 AM 38.7°F3.7°C 36.3°F2.4°C 91% 3.0 mph WSW4.8 kmh WSW 8.0 mph12.9 kmh 29.94 in1013.9 mb 0.00 in0.0 mm 0.00 in0.0 mm 0.03 in0.8 mm
03:30 AM 38.7°F3.7°C 36.3°F2.4°C 91% 3.0 mph WSW4.8 kmh WSW -- 29.94 in1013.9 mb 0.00 in0.0 mm 0.00 in0.0 mm 0.03 in0.8 mm
03:35 AM 38.9°F3.8°C 36.5°F2.5°C 91% 4.0 mph SSW6.4 kmh SSW -- 29.93 in1013.5 mb 0.00 in0.0 mm 0.00 in0.0 mm 0.03 in0.8 mm
03:40 AM 39.2°F4.0°C 36.9°F2.7°C 91% 4.0 mph SW6.4 kmh SW -- 29.93 in1013.5 mb 0.01 in0.3 mm 0.12 in3.0 mm 0.04 in1.0 mm
03:45 AM 39.4°F4.1°C 37.0°F2.8°C 91% 7.0 mph SW11.3 kmh SW -- 29.93 in1013.5 mb 0.01 in0.3 mm 0.00 in0.0 mm 0.04 in1.0 mm
03:50 AM 39.6°F4.2°C 36.9°F2.7°C 90% 3.0 mph SSW4.8 kmh SSW 8.0 mph12.9 kmh 29.93 in1013.5 mb 0.01 in0.3 mm 0.00 in0.0 mm 0.04 in1.0 mm
03:55 AM 39.7°F4.3°C 37.0°F2.8°C 90% 3.0 mph SSW4.8 kmh SSW -- 29.93 in1013.5 mb 0.01 in0.3 mm 0.00 in0.0 mm 0.04 in1.0 mm
04:00 AM 39.8°F4.3°C 37.0°F2.8°C 90% 7.0 mph SW11.3 kmh SW -- 29.93 in1013.5 mb 0.01 in0.3 mm 0.00 in0.0 mm 0.04 in1.0 mm
04:05 AM 39.8°F4.3°C 37.0°F2.8°C 90% 6.0 mph WSW9.7 kmh WSW -- 29.93 in1013.5 mb 0.01 in0.3 mm 0.00 in0.0 mm 0.04 in1.0 mm
04:10 AM 39.9°F4.4°C 36.9°F2.7°C 89% 4.0 mph SW6.4 kmh SW -- 29.93 in1013.5 mb 0.01 in0.3 mm 0.00 in0.0 mm 0.04 in1.0 mm
04:15 AM 40.1°F4.5°C 37.0°F2.8°C 89% 4.0 mph SSW6.4 kmh SSW 10.0 mph16.1 kmh 29.93 in1013.5 mb 0.01 in0.3 mm 0.00 in0.0 mm 0.04 in1.0 mm
04:20 AM 40.1°F4.5°C 37.0°F2.8°C 89% 4.0 mph SW6.4 kmh SW -- 29.93 in1013.5 mb 0.01 in0.3 mm 0.00 in0.0 mm 0.04 in1.0 mm
04:25 AM 40.0°F4.4°C 36.9°F2.7°C 89% 6.0 mph SW9.7 kmh SW -- 29.93 in1013.5 mb 0.01 in0.3 mm 0.00 in0.0 mm 0.04 in1.0 mm
04:30 AM 40.0°F4.4°C 36.9°F2.7°C 89% 3.0 mph SW4.8 kmh SW -- 29.92 in1013.2 mb 0.01 in0.3 mm 0.00 in0.0 mm 0.04 in1.0 mm
04:35 AM 39.9°F4.4°C 36.9°F2.7°C 89% 4.0 mph SW6.4 kmh SW -- 29.92 in1013.2 mb 0.01 in0.3 mm 0.00 in0.0 mm 0.04 in1.0 mm
04:40 AM 39.9°F4.4°C 36.9°F2.7°C 89% 2.0 mph SW3.2 kmh SW 8.0 mph12.9 kmh 29.92 in1013.2 mb 0.00 in0.0 mm 0.00 in0.0 mm 0.04 in1.0 mm
04:45 AM 39.8°F4.3°C 37.0°F2.8°C 90% Calm Calm -- 29.92 in1013.2 mb 0.00 in0.0 mm 0.00 in0.0 mm 0.04 in1.0 mm
04:50 AM 39.8°F4.3°C 37.0°F2.8°C 90% 1.0 mph SSW1.6 kmh SSW -- 29.92 in1013.2 mb 0.00 in0.0 mm 0.00 in0.0 mm 0.04 in1.0 mm
04:55 AM 39.8°F4.3°C 37.0°F2.8°C 90% Calm Calm -- 29.92 in1013.2 mb 0.01 in0.3 mm 0.12 in3.0 mm 0.05 in1.3 mm
05:00 AM 39.7°F4.3°C 37.0°F2.8°C 90% 5.0 mph SSW8.0 kmh SSW -- 29.92 in1013.2 mb 0.01 in0.3 mm 0.00 in0.0 mm 0.05 in1.3 mm
05:05 AM 39.7°F4.3°C 36.7°F2.6°C 89% 1.0 mph SW1.6 kmh SW 6.0 mph9.7 kmh 29.92 in1013.2 mb 0.01 in0.3 mm 0.00 in0.0 mm 0.05 in1.3 mm
05:10 AM 39.5°F4.2°C 36.9°F2.7°C 90% Calm Calm -- 29.92 in1013.2 mb 0.01 in0.3 mm 0.00 in0.0 mm 0.05 in1.3 mm
05:15 AM 39.3°F4.1°C 36.5°F2.5°C 89% Calm Calm -- 29.92 in1013.2 mb 0.01 in0.3 mm 0.00 in0.0 mm 0.05 in1.3 mm
05:20 AM 39.2°F4.0°C 36.3°F2.4°C 89% Calm Calm -- 29.92 in1013.2 mb 0.01 in0.3 mm 0.00 in0.0 mm 0.05 in1.3 mm
05:25 AM 39.0°F3.9°C 36.3°F2.4°C 90% 2.0 mph SW3.2 kmh SW -- 29.91 in1012.9 mb 0.01 in0.3 mm 0.00 in0.0 mm 0.05 in1.3 mm
05:30 AM 38.9°F3.8°C 36.1°F2.3°C 90% 4.0 mph SW6.4 kmh SW 5.0 mph8.0 kmh 29.91 in1012.9 mb 0.01 in0.3 mm 0.00 in0.0 mm 0.05 in1.3 mm
05:35 AM 38.9°F3.8°C 36.1°F2.3°C 90% 2.0 mph SW3.2 kmh SW -- 29.91 in1012.9 mb 0.01 in0.3 mm 0.00 in0.0 mm 0.05 in1.3 mm
05:40 AM 38.9°F3.8°C 36.1°F2.3°C 90% 3.0 mph SW4.8 kmh SW -- 29.91 in1012.9 mb 0.01 in0.3 mm 0.00 in0.0 mm 0.05 in1.3 mm
05:45 AM 39.0°F3.9°C 36.3°F2.4°C 90% 2.0 mph SW3.2 kmh SW -- 29.91 in1012.9 mb 0.01 in0.3 mm 0.00 in0.0 mm 0.05 in1.3 mm
05:50 AM 38.9°F3.8°C 36.1°F2.3°C 90% 3.0 mph SW4.8 kmh SW -- 29.91 in1012.9 mb 0.01 in0.3 mm 0.00 in0.0 mm 0.05 in1.3 mm
05:55 AM 38.8°F3.8°C 36.1°F2.3°C 90% 3.0 mph SW4.8 kmh SW 5.0 mph8.0 kmh 29.91 in1012.9 mb 0.00 in0.0 mm 0.00 in0.0 mm 0.05 in1.3 mm
06:00 AM 38.8°F3.8°C 36.1°F2.3°C 90% 2.0 mph SW3.2 kmh SW -- 29.91 in1012.9 mb 0.00 in0.0 mm 0.00 in0.0 mm 0.05 in1.3 mm
06:05 AM 38.9°F3.8°C 36.1°F2.3°C 90% Calm Calm -- 29.91 in1012.9 mb 0.00 in0.0 mm 0.00 in0.0 mm 0.05 in1.3 mm
06:10 AM 38.9°F3.8°C 36.1°F2.3°C 90% Calm Calm -- 29.90 in1012.5 mb 0.00 in0.0 mm 0.00 in0.0 mm 0.05 in1.3 mm
06:15 AM 38.8°F3.8°C 36.1°F2.3°C 90% 2.0 mph SW3.2 kmh SW -- 29.90 in1012.5 mb 0.00 in0.0 mm 0.00 in0.0 mm 0.05 in1.3 mm
06:20 AM 38.7°F3.7°C 36.0°F2.2°C 90% 1.0 mph SW1.6 kmh SW 3.0 mph4.8 kmh 29.90 in1012.5 mb 0.00 in0.0 mm 0.00 in0.0 mm 0.05 in1.3 mm
06:25 AM 38.5°F3.6°C 35.8°F2.1°C 90% 2.0 mph SW3.2 kmh SW -- 29.90 in1012.5 mb 0.00 in0.0 mm 0.00 in0.0 mm 0.05 in1.3 mm
06:30 AM 38.4°F3.6°C 36.1°F2.3°C 91% 1.0 mph SW1.6 kmh SW -- 29.90 in1012.5 mb 0.00 in0.0 mm 0.00 in0.0 mm 0.05 in1.3 mm
06:35 AM 38.4°F3.6°C 36.1°F2.3°C 91% 2.0 mph SW3.2 kmh SW -- 29.90 in1012.5 mb 0.00 in0.0 mm 0.00 in0.0 mm 0.05 in1.3 mm
06:40 AM 38.4°F3.6°C 36.1°F2.3°C 91% 1.0 mph SW1.6 kmh SW -- 29.90 in1012.5 mb 0.00 in0.0 mm 0.00 in0.0 mm 0.05 in1.3 mm
06:45 AM 38.0°F3.3°C 35.6°F2.0°C 91% 2.0 mph SW3.2 kmh SW 3.0 mph4.8 kmh 29.90 in1012.5 mb 0.00 in0.0 mm 0.00 in0.0 mm 0.05 in1.3 mm
06:50 AM 37.8°F3.2°C 35.4°F1.9°C 91% 2.0 mph SW3.2 kmh SW -- 29.90 in1012.5 mb 0.00 in0.0 mm 0.00 in0.0 mm 0.05 in1.3 mm
06:55 AM 37.7°F3.2°C 35.4°F1.9°C 91% 2.0 mph WSW3.2 kmh WSW -- 29.90 in1012.5 mb 0.01 in0.3 mm 0.12 in3.0 mm 0.06 in1.5 mm
07:00 AM 37.4°F3.0°C 35.1°F1.7°C 91% 2.0 mph SW3.2 kmh SW -- 29.90 in1012.5 mb 0.01 in0.3 mm 0.00 in0.0 mm 0.06 in1.5 mm
07:05 AM 37.2°F2.9°C 35.1°F1.7°C 92% 3.0 mph SW4.8 kmh SW -- 29.90 in1012.5 mb 0.01 in0.3 mm 0.00 in0.0 mm 0.06 in1.5 mm
07:10 AM 37.2°F2.9°C 35.1°F1.7°C 92% 2.0 mph SW3.2 kmh SW 4.0 mph6.4 kmh 29.90 in1012.5 mb 0.01 in0.3 mm 0.00 in0.0 mm 0.06 in1.5 mm
07:15 AM 37.3°F2.9°C 35.1°F1.7°C 92% 2.0 mph SW3.2 kmh SW -- 29.90 in1012.5 mb 0.01 in0.3 mm 0.00 in0.0 mm 0.06 in1.5 mm
07:20 AM 37.3°F2.9°C 35.4°F1.9°C 93% 4.0 mph W6.4 kmh W -- 29.90 in1012.5 mb 0.01 in0.3 mm 0.00 in0.0 mm 0.06 in1.5 mm
07:25 AM 37.6°F3.1°C 35.8°F2.1°C 93% 5.0 mph WSW8.0 kmh WSW -- 29.90 in1012.5 mb 0.01 in0.3 mm 0.00 in0.0 mm 0.06 in1.5 mm
07:30 AM 37.9°F3.3°C 36.1°F2.3°C 93% 5.0 mph W8.0 kmh W -- 29.90 in1012.5 mb 0.01 in0.3 mm 0.00 in0.0 mm 0.06 in1.5 mm
07:35 AM 38.3°F3.5°C 36.1°F2.3°C 92% 4.0 mph W6.4 kmh W 7.0 mph11.3 kmh 29.90 in1012.5 mb 0.01 in0.3 mm 0.00 in0.0 mm 0.06 in1.5 mm
07:40 AM 39.1°F3.9°C 36.9°F2.7°C 92% 4.0 mph W6.4 kmh W -- 29.89 in1012.2 mb 0.01 in0.3 mm 0.00 in0.0 mm 0.06 in1.5 mm
07:45 AM 39.8°F4.3°C 37.6°F3.1°C 92% 5.0 mph W8.0 kmh W -- 29.89 in1012.2 mb 0.01 in0.3 mm 0.00 in0.0 mm 0.06 in1.5 mm
07:50 AM 40.4°F4.7°C 38.1°F3.4°C 91% 2.0 mph WSW3.2 kmh WSW -- 29.89 in1012.2 mb 0.01 in0.3 mm 0.00 in0.0 mm 0.06 in1.5 mm
07:55 AM 40.6°F4.8°C 37.9°F3.3°C 90% 2.0 mph W3.2 kmh W -- 29.89 in1012.2 mb 0.00 in0.0 mm 0.00 in0.0 mm 0.06 in1.5 mm
08:00 AM 40.7°F4.8°C 37.6°F3.1°C 89% 4.0 mph WNW6.4 kmh WNW 5.0 mph8.0 kmh 29.89 in1012.2 mb 0.00 in0.0 mm 0.00 in0.0 mm 0.06 in1.5 mm
08:05 AM 40.9°F4.9°C 37.8°F3.2°C 89% 4.0 mph WNW6.4 kmh WNW -- 29.89 in1012.2 mb 0.00 in0.0 mm 0.00 in0.0 mm 0.06 in1.5 mm
08:10 AM 41.0°F5.0°C 37.8°F3.2°C 88% 4.0 mph WSW6.4 kmh WSW -- 29.89 in1012.2 mb 0.00 in0.0 mm 0.00 in0.0 mm 0.06 in1.5 mm
08:15 AM 40.8°F4.9°C 37.6°F3.1°C 88% 1.0 mph W1.6 kmh W -- 29.89 in1012.2 mb 0.00 in0.0 mm 0.00 in0.0 mm 0.06 in1.5 mm
08:20 AM 40.7°F4.8°C 37.4°F3.0°C 88% 1.0 mph W1.6 kmh W -- 29.89 in1012.2 mb 0.00 in0.0 mm 0.00 in0.0 mm 0.06 in1.5 mm
08:25 AM 40.7°F4.8°C 37.6°F3.1°C 89% 3.0 mph WSW4.8 kmh WSW 4.0 mph6.4 kmh 29.89 in1012.2 mb 0.00 in0.0 mm 0.00 in0.0 mm 0.06 in1.5 mm
08:30 AM 40.8°F4.9°C 37.6°F3.1°C 88% 2.0 mph WSW3.2 kmh WSW -- 29.89 in1012.2 mb 0.00 in0.0 mm 0.00 in0.0 mm 0.06 in1.5 mm
08:35 AM 40.9°F4.9°C 37.8°F3.2°C 89% 1.0 mph WSW1.6 kmh WSW -- 29.89 in1012.2 mb 0.00 in0.0 mm 0.00 in0.0 mm 0.06 in1.5 mm
08:40 AM 41.1°F5.1°C 37.9°F3.3°C 88% Calm Calm -- 29.89 in1012.2 mb 0.01 in0.3 mm 0.12 in3.0 mm 0.06 in1.5 mm
08:45 AM 41.4°F5.2°C 38.1°F3.4°C 88% 1.0 mph WSW1.6 kmh WSW -- 29.89 in1012.2 mb 0.01 in0.3 mm 0.00 in0.0 mm 0.06 in1.5 mm
08:50 AM 41.7°F5.4°C 38.5°F3.6°C 88% Calm Calm 2.0 mph3.2 kmh 29.88 in1011.9 mb 0.01 in0.3 mm 0.00 in0.0 mm 0.06 in1.5 mm
08:55 AM 42.2°F5.7°C 38.7°F3.7°C 87% 1.0 mph S1.6 kmh S -- 29.89 in1012.2 mb 0.01 in0.3 mm 0.00 in0.0 mm 0.06 in1.5 mm
09:00 AM 42.6°F5.9°C 38.1°F3.4°C 84% 3.0 mph W4.8 kmh W -- 29.89 in1012.2 mb 0.01 in0.3 mm 0.00 in0.0 mm 0.06 in1.5 mm
09:05 AM 42.9°F6.1°C 37.9°F3.3°C 82% Calm Calm -- 29.88 in1011.9 mb 0.01 in0.3 mm 0.00 in0.0 mm 0.06 in1.5 mm
09:10 AM 43.0°F6.1°C 37.6°F3.1°C 81% Calm Calm -- 29.88 in1011.9 mb 0.01 in0.3 mm 0.00 in0.0 mm 0.06 in1.5 mm
09:15 AM 43.2°F6.2°C 37.8°F3.2°C 81% 3.0 mph WSW4.8 kmh WSW 5.0 mph8.0 kmh 29.88 in1011.9 mb 0.01 in0.3 mm 0.00 in0.0 mm 0.06 in1.5 mm
09:20 AM 43.4°F6.3°C 37.2°F2.9°C 79% 4.0 mph SW6.4 kmh SW -- 29.89 in1012.2 mb 0.01 in0.3 mm 0.00 in0.0 mm 0.06 in1.5 mm
09:25 AM 43.6°F6.4°C 36.9°F2.7°C 77% 1.0 mph WSW1.6 kmh WSW -- 29.89 in1012.2 mb 0.01 in0.3 mm 0.00 in0.0 mm 0.06 in1.5 mm
09:30 AM 43.8°F6.6°C 37.4°F3.0°C 78% 1.0 mph WSW1.6 kmh WSW -- 29.88 in1011.9 mb 0.01 in0.3 mm 0.00 in0.0 mm 0.06 in1.5 mm
09:35 AM 43.9°F6.6°C 36.9°F2.7°C 76% Calm Calm -- 29.88 in1011.9 mb 0.01 in0.3 mm 0.00 in0.0 mm 0.06 in1.5 mm
09:40 AM 44.1°F6.7°C 37.0°F2.8°C 76% 2.0 mph W3.2 kmh W 4.0 mph6.4 kmh 29.88 in1011.9 mb 0.00 in0.0 mm 0.00 in0.0 mm 0.06 in1.5 mm
09:45 AM 43.9°F6.6°C 36.5°F2.5°C 75% 1.0 mph W1.6 kmh W -- 29.88 in1011.9 mb 0.00 in0.0 mm 0.00 in0.0 mm 0.06 in1.5 mm
09:50 AM 43.8°F6.6°C 36.5°F2.5°C 75% 3.0 mph WSW4.8 kmh WSW -- 29.88 in1011.9 mb 0.00 in0.0 mm 0.00 in0.0 mm 0.06 in1.5 mm
09:55 AM 44.0°F6.7°C 37.0°F2.8°C 76% Calm Calm -- 29.88 in1011.9 mb 0.00 in0.0 mm 0.00 in0.0 mm 0.06 in1.5 mm
10:00 AM 44.2°F6.8°C 37.6°F3.1°C 77% Calm Calm -- 29.88 in1011.9 mb 0.00 in0.0 mm 0.00 in0.0 mm 0.06 in1.5 mm
10:05 AM 44.3°F6.8°C 37.2°F2.9°C 76% Calm Calm 3.0 mph4.8 kmh 29.88 in1011.9 mb 0.00 in0.0 mm 0.00 in0.0 mm 0.06 in1.5 mm
10:10 AM 44.5°F6.9°C 37.0°F2.8°C 75% 2.0 mph W3.2 kmh W -- 29.88 in1011.9 mb 0.00 in0.0 mm 0.00 in0.0 mm 0.06 in1.5 mm
10:15 AM 44.5°F6.9°C 36.7°F2.6°C 74% Calm Calm -- 29.88 in1011.9 mb 0.00 in0.0 mm 0.00 in0.0 mm 0.06 in1.5 mm
10:20 AM 44.5°F6.9°C 36.7°F2.6°C 74% 3.0 mph WSW4.8 kmh WSW -- 29.88 in1011.9 mb 0.00 in0.0 mm 0.00 in0.0 mm 0.06 in1.5 mm
10:25 AM 44.3°F6.8°C 36.1°F2.3°C 73% 3.0 mph WSW4.8 kmh WSW -- 29.88 in1011.9 mb 0.00 in0.0 mm 0.00 in0.0 mm 0.06 in1.5 mm
10:30 AM 44.2°F6.8°C 36.5°F2.5°C 74% 1.0 mph SW1.6 kmh SW 5.0 mph8.0 kmh 29.88 in1011.9 mb 0.00 in0.0 mm 0.00 in0.0 mm 0.06 in1.5 mm
10:35 AM 44.3°F6.8°C 36.5°F2.5°C 74% Calm Calm -- 29.88 in1011.9 mb 0.00 in0.0 mm 0.00 in0.0 mm 0.06 in1.5 mm
10:40 AM 44.3°F6.8°C 36.5°F2.5°C 74% 2.0 mph W3.2 kmh W -- 29.88 in1011.9 mb 0.00 in0.0 mm 0.00 in0.0 mm 0.06 in1.5 mm
10:45 AM 44.3°F6.8°C 36.5°F2.5°C 74% 1.0 mph SW1.6 kmh SW -- 29.88 in1011.9 mb 0.00 in0.0 mm 0.00 in0.0 mm 0.06 in1.5 mm
10:50 AM 44.3°F6.8°C 36.9°F2.7°C 75% Calm Calm -- 29.89 in1012.2 mb 0.00 in0.0 mm 0.00 in0.0 mm 0.06 in1.5 mm
10:55 AM 44.5°F6.9°C 37.0°F2.8°C 75% 1.0 mph SSW1.6 kmh SSW 4.0 mph6.4 kmh 29.88 in1011.9 mb 0.01 in0.3 mm 0.12 in3.0 mm 0.07 in1.8 mm
11:00 AM 44.7°F7.1°C 37.4°F3.0°C 75% Calm Calm -- 29.88 in1011.9 mb 0.01 in0.3 mm 0.00 in0.0 mm 0.07 in1.8 mm
11:05 AM 44.7°F7.1°C 37.0°F2.8°C 74% 1.0 mph W1.6 kmh W -- 29.88 in1011.9 mb 0.01 in0.3 mm 0.00 in0.0 mm 0.07 in1.8 mm
11:10 AM 44.6°F7.0°C 36.5°F2.5°C 73% 1.0 mph SW1.6 kmh SW -- 29.88 in1011.9 mb 0.01 in0.3 mm 0.00 in0.0 mm 0.07 in1.8 mm
11:15 AM 44.7°F7.1°C 36.7°F2.6°C 73% 1.0 mph SW1.6 kmh SW -- 29.88 in1011.9 mb 0.01 in0.3 mm 0.00 in0.0 mm 0.07 in1.8 mm
11:20 AM 44.6°F7.0°C 36.1°F2.3°C 72% 2.0 mph WSW3.2 kmh WSW 4.0 mph6.4 kmh 29.88 in1011.9 mb 0.01 in0.3 mm 0.00 in0.0 mm 0.07 in1.8 mm
11:25 AM 44.6°F7.0°C 36.5°F2.5°C 73% 2.0 mph WSW3.2 kmh WSW -- 29.88 in1011.9 mb 0.01 in0.3 mm 0.00 in0.0 mm 0.07 in1.8 mm
11:30 AM 44.6°F7.0°C 36.9°F2.7°C 74% Calm Calm -- 29.88 in1011.9 mb 0.01 in0.3 mm 0.00 in0.0 mm 0.07 in1.8 mm
11:35 AM 44.6°F7.0°C 36.9°F2.7°C 74% 1.0 mph WSW1.6 kmh WSW -- 29.88 in1011.9 mb 0.01 in0.3 mm 0.00 in0.0 mm 0.07 in1.8 mm
11:40 AM 44.5°F6.9°C 36.7°F2.6°C 74% 2.0 mph WSW3.2 kmh WSW -- 29.88 in1011.9 mb 0.02 in0.5 mm 0.12 in3.0 mm 0.08 in2.0 mm
11:45 AM 44.6°F7.0°C 36.9°F2.7°C 74% 1.0 mph WSW1.6 kmh WSW 3.0 mph4.8 kmh 29.88 in1011.9 mb 0.02 in0.5 mm 0.00 in0.0 mm 0.08 in2.0 mm
11:50 AM 44.7°F7.1°C 37.0°F2.8°C 74% 3.0 mph WSW4.8 kmh WSW -- 29.88 in1011.9 mb 0.02 in0.5 mm 0.00 in0.0 mm 0.08 in2.0 mm
11:55 AM 44.7°F7.1°C 36.7°F2.6°C 73% 1.0 mph S1.6 kmh S -- 29.88 in1011.9 mb 0.01 in0.3 mm 0.00 in0.0 mm 0.08 in2.0 mm
12:00 PM 44.8°F7.1°C 36.3°F2.4°C 72% 5.0 mph SW8.0 kmh SW -- 29.88 in1011.9 mb 0.01 in0.3 mm 0.00 in0.0 mm 0.08 in2.0 mm
12:05 PM 44.8°F7.1°C 36.3°F2.4°C 72% 2.0 mph WSW3.2 kmh WSW -- 29.88 in1011.9 mb 0.01 in0.3 mm 0.00 in0.0 mm 0.08 in2.0 mm
12:10 PM 44.8°F7.1°C 36.3°F2.4°C 72% Calm Calm 5.0 mph8.0 kmh 29.88 in1011.9 mb 0.01 in0.3 mm 0.00 in0.0 mm 0.08 in2.0 mm
12:15 PM 44.9°F7.2°C 36.1°F2.3°C 71% Calm Calm -- 29.88 in1011.9 mb 0.01 in0.3 mm 0.00 in0.0 mm 0.08 in2.0 mm
12:20 PM 45.1°F7.3°C 36.7°F2.6°C 72% Calm Calm -- 29.87 in1011.5 mb 0.01 in0.3 mm 0.00 in0.0 mm 0.08 in2.0 mm
12:25 PM 45.3°F7.4°C 37.2°F2.9°C 73% 1.0 mph W1.6 kmh W -- 29.87 in1011.5 mb 0.01 in0.3 mm 0.00 in0.0 mm 0.08 in2.0 mm
12:30 PM 45.2°F7.3°C 37.0°F2.8°C 73% 2.0 mph WNW3.2 kmh WNW -- 29.87 in1011.5 mb 0.01 in0.3 mm 0.00 in0.0 mm 0.08 in2.0 mm
12:35 PM 45.2°F7.3°C 36.7°F2.6°C 72% Calm Calm 4.0 mph6.4 kmh 29.87 in1011.5 mb 0.01 in0.3 mm 0.00 in0.0 mm 0.08 in2.0 mm
12:40 PM 45.2°F7.3°C 36.7°F2.6°C 72% Calm Calm -- 29.87 in1011.5 mb 0.00 in0.0 mm 0.00 in0.0 mm 0.08 in2.0 mm
12:45 PM 45.3°F7.4°C 36.9°F2.7°C 72% 1.0 mph WSW1.6 kmh WSW -- 29.87 in1011.5 mb 0.00 in0.0 mm 0.00 in0.0 mm 0.08 in2.0 mm
12:50 PM 45.6°F7.6°C 37.6°F3.1°C 73% 2.0 mph NNW3.2 kmh NNW -- 29.87 in1011.5 mb 0.00 in0.0 mm 0.00 in0.0 mm 0.08 in2.0 mm
12:55 PM 45.6°F7.6°C 37.6°F3.1°C 73% 3.0 mph W4.8 kmh W -- 29.87 in1011.5 mb 0.00 in0.0 mm 0.00 in0.0 mm 0.08 in2.0 mm
01:00 PM 45.4°F7.4°C 37.2°F2.9°C 73% Calm Calm 5.0 mph8.0 kmh 29.86 in1011.2 mb 0.00 in0.0 mm 0.00 in0.0 mm 0.08 in2.0 mm
01:05 PM 45.3°F7.4°C 37.6°F3.1°C 74% Calm Calm -- 29.86 in1011.2 mb 0.00 in0.0 mm 0.00 in0.0 mm 0.08 in2.0 mm
01:10 PM 45.4°F7.4°C 37.6°F3.1°C 74% Calm Calm -- 29.86 in1011.2 mb 0.00 in0.0 mm 0.00 in0.0 mm 0.08 in2.0 mm
01:15 PM 45.4°F7.4°C 37.6°F3.1°C 74% 2.0 mph ENE3.2 kmh ENE -- 29.86 in1011.2 mb 0.00 in0.0 mm 0.00 in0.0 mm 0.08 in2.0 mm
01:20 PM 45.5°F7.5°C 37.4°F3.0°C 73% 2.0 mph NE3.2 kmh NE -- 29.86 in1011.2 mb 0.00 in0.0 mm 0.00 in0.0 mm 0.08 in2.0 mm
01:25 PM 45.5°F7.5°C 37.4°F3.0°C 73% 1.0 mph NNE1.6 kmh NNE 5.0 mph8.0 kmh 29.86 in1011.2 mb 0.00 in0.0 mm 0.00 in0.0 mm 0.08 in2.0 mm
01:30 PM 45.4°F7.4°C 36.9°F2.7°C 72% Calm Calm -- 29.86 in1011.2 mb 0.00 in0.0 mm 0.00 in0.0 mm 0.08 in2.0 mm
01:35 PM 45.3°F7.4°C 36.9°F2.7°C 72% 1.0 mph N1.6 kmh N -- 29.86 in1011.2 mb 0.00 in0.0 mm 0.00 in0.0 mm 0.08 in2.0 mm
01:40 PM 45.4°F7.4°C 36.9°F2.7°C 72% Calm Calm -- 29.86 in1011.2 mb 0.00 in0.0 mm 0.00 in0.0 mm 0.08 in2.0 mm
01:45 PM 45.5°F7.5°C 37.0°F2.8°C 72% 2.0 mph NE3.2 kmh NE -- 29.86 in1011.2 mb 0.00 in0.0 mm 0.00 in0.0 mm 0.08 in2.0 mm
01:50 PM 45.6°F7.6°C 37.2°F2.9°C 72% 1.0 mph N1.6 kmh N 3.0 mph4.8 kmh 29.86 in1011.2 mb 0.00 in0.0 mm 0.00 in0.0 mm 0.08 in2.0 mm
01:55 PM 45.5°F7.5°C 36.3°F2.4°C 70% 3.0 mph NNE4.8 kmh NNE -- 29.85 in1010.8 mb 0.01 in0.3 mm 0.12 in3.0 mm 0.09 in2.3 mm
02:00 PM 45.4°F7.4°C 36.5°F2.5°C 71% 2.0 mph NE3.2 kmh NE -- 29.85 in1010.8 mb 0.01 in0.3 mm 0.00 in0.0 mm 0.09 in2.3 mm
02:05 PM 45.3°F7.4°C 36.9°F2.7°C 72% 2.0 mph NE3.2 kmh NE -- 29.85 in1010.8 mb 0.01 in0.3 mm 0.00 in0.0 mm 0.09 in2.3 mm
02:10 PM 45.1°F7.3°C 36.7°F2.6°C 72% 3.0 mph NE4.8 kmh NE -- 29.85 in1010.8 mb 0.01 in0.3 mm 0.00 in0.0 mm 0.09 in2.3 mm
02:15 PM 45.1°F7.3°C 36.7°F2.6°C 72% 2.0 mph NE3.2 kmh NE 5.0 mph8.0 kmh 29.85 in1010.8 mb 0.01 in0.3 mm 0.00 in0.0 mm 0.09 in2.3 mm
02:20 PM 45.0°F7.2°C 36.9°F2.7°C 73% Calm Calm -- 29.85 in1010.8 mb 0.01 in0.3 mm 0.00 in0.0 mm 0.09 in2.3 mm
02:25 PM 45.0°F7.2°C 36.5°F2.5°C 72% Calm Calm -- 29.84 in1010.5 mb 0.01 in0.3 mm 0.00 in0.0 mm 0.09 in2.3 mm
02:30 PM 45.1°F7.3°C 36.7°F2.6°C 72% 2.0 mph NE3.2 kmh NE -- 29.84 in1010.5 mb 0.01 in0.3 mm 0.00 in0.0 mm 0.09 in2.3 mm
02:35 PM 45.0°F7.2°C 36.9°F2.7°C 73% 2.0 mph ENE3.2 kmh ENE -- 29.84 in1010.5 mb 0.01 in0.3 mm 0.00 in0.0 mm 0.09 in2.3 mm
02:40 PM 45.0°F7.2°C 36.9°F2.7°C 73% 1.0 mph ENE1.6 kmh ENE 3.0 mph4.8 kmh 29.84 in1010.5 mb 0.01 in0.3 mm 0.00 in0.0 mm 0.09 in2.3 mm
02:45 PM 45.0°F7.2°C 37.2°F2.9°C 74% Calm Calm -- 29.84 in1010.5 mb 0.01 in0.3 mm 0.00 in0.0 mm 0.09 in2.3 mm
02:50 PM 44.9°F7.2°C 37.6°F3.1°C 75% Calm Calm -- 29.84 in1010.5 mb 0.01 in0.3 mm 0.00 in0.0 mm 0.09 in2.3 mm
02:55 PM 44.8°F7.1°C 37.0°F2.8°C 74% Calm Calm -- 29.84 in1010.5 mb 0.00 in0.0 mm 0.00 in0.0 mm 0.09 in2.3 mm
03:00 PM 44.6°F7.0°C 36.9°F2.7°C 74% Calm Calm -- 29.84 in1010.5 mb 0.00 in0.0 mm 0.00 in0.0 mm 0.09 in2.3 mm
03:05 PM 44.6°F7.0°C 37.2°F2.9°C 75% Calm Calm 3.0 mph4.8 kmh 29.84 in1010.5 mb 0.00 in0.0 mm 0.00 in0.0 mm 0.09 in2.3 mm
03:10 PM 44.5°F6.9°C 37.6°F3.1°C 77% Calm Calm -- 29.84 in1010.5 mb 0.01 in0.3 mm 0.12 in3.0 mm 0.09 in2.3 mm
03:15 PM 44.1°F6.7°C 37.4°F3.0°C 77% 1.0 mph ENE1.6 kmh ENE -- 29.84 in1010.5 mb 0.01 in0.3 mm 0.00 in0.0 mm 0.09 in2.3 mm
03:20 PM 43.6°F6.4°C 37.8°F3.2°C 80% 2.0 mph ENE3.2 kmh ENE -- 29.83 in1010.2 mb 0.01 in0.3 mm 0.00 in0.0 mm 0.09 in2.3 mm
03:25 PM 43.3°F6.3°C 37.9°F3.3°C 81% 1.0 mph NE1.6 kmh NE -- 29.84 in1010.5 mb 0.01 in0.3 mm 0.00 in0.0 mm 0.09 in2.3 mm
03:30 PM 43.5°F6.4°C 38.5°F3.6°C 82% 2.0 mph NE3.2 kmh NE 3.0 mph4.8 kmh 29.83 in1010.2 mb 0.01 in0.3 mm 0.00 in0.0 mm 0.09 in2.3 mm
03:35 PM 43.8°F6.6°C 38.5°F3.6°C 81% 1.0 mph NE1.6 kmh NE -- 29.83 in1010.2 mb 0.01 in0.3 mm 0.00 in0.0 mm 0.09 in2.3 mm
03:40 PM 44.0°F6.7°C 38.3°F3.5°C 80% Calm Calm -- 29.83 in1010.2 mb 0.01 in0.3 mm 0.00 in0.0 mm 0.09 in2.3 mm
03:45 PM 44.0°F6.7°C 38.3°F3.5°C 80% 1.0 mph NE1.6 kmh NE -- 29.84 in1010.5 mb 0.01 in0.3 mm 0.00 in0.0 mm 0.09 in2.3 mm
03:50 PM 43.8°F6.6°C 38.1°F3.4°C 80% 1.0 mph NE1.6 kmh NE -- 29.84 in1010.5 mb 0.01 in0.3 mm 0.00 in0.0 mm 0.09 in2.3 mm
03:55 PM 43.4°F6.3°C 37.9°F3.3°C 81% 2.0 mph NE3.2 kmh NE 2.0 mph3.2 kmh 29.84 in1010.5 mb 0.01 in0.3 mm 0.00 in0.0 mm 0.09 in2.3 mm
04:00 PM 43.0°F6.1°C 37.9°F3.3°C 82% 2.0 mph W3.2 kmh W -- 29.84 in1010.5 mb 0.01 in0.3 mm 0.00 in0.0 mm 0.09 in2.3 mm
04:05 PM 42.3°F5.7°C 37.4°F3.0°C 83% 3.0 mph WSW4.8 kmh WSW -- 29.84 in1010.5 mb 0.01 in0.3 mm 0.00 in0.0 mm 0.09 in2.3 mm
04:10 PM 41.9°F5.5°C 37.4°F3.0°C 84% 3.0 mph WSW4.8 kmh WSW -- 29.84 in1010.5 mb 0.00 in0.0 mm 0.00 in0.0 mm 0.09 in2.3 mm
04:15 PM 41.6°F5.3°C 37.4°F3.0°C 85% 3.0 mph WSW4.8 kmh WSW -- 29.84 in1010.5 mb 0.00 in0.0 mm 0.00 in0.0 mm 0.09 in2.3 mm
04:20 PM 41.4°F5.2°C 37.2°F2.9°C 85% 4.0 mph WSW6.4 kmh WSW 5.0 mph8.0 kmh 29.84 in1010.5 mb 0.00 in0.0 mm 0.00 in0.0 mm 0.09 in2.3 mm
04:25 PM 41.3°F5.2°C 37.6°F3.1°C 86% 2.0 mph WSW3.2 kmh WSW -- 29.83 in1010.2 mb 0.00 in0.0 mm 0.00 in0.0 mm 0.09 in2.3 mm
04:30 PM 41.1°F5.1°C 37.4°F3.0°C 86% 3.0 mph SW4.8 kmh SW -- 29.83 in1010.2 mb 0.01 in0.3 mm 0.12 in3.0 mm 0.10 in2.5 mm
04:35 PM 41.1°F5.1°C 37.6°F3.1°C 87% 4.0 mph WSW6.4 kmh WSW -- 29.83 in1010.2 mb 0.01 in0.3 mm 0.00 in0.0 mm 0.10 in2.5 mm
04:40 PM 41.1°F5.1°C 37.6°F3.1°C 87% 4.0 mph WSW6.4 kmh WSW -- 29.83 in1010.2 mb 0.01 in0.3 mm 0.00 in0.0 mm 0.10 in2.5 mm
04:45 PM 41.4°F5.2°C 37.8°F3.2°C 87% 2.0 mph WSW3.2 kmh WSW 5.0 mph8.0 kmh 29.83 in1010.2 mb 0.01 in0.3 mm 0.00 in0.0 mm 0.10 in2.5 mm
04:50 PM 41.5°F5.3°C 37.9°F3.3°C 87% 1.0 mph SW1.6 kmh SW -- 29.83 in1010.2 mb 0.01 in0.3 mm 0.00 in0.0 mm 0.10 in2.5 mm
04:55 PM 41.6°F5.3°C 37.9°F3.3°C 87% 1.0 mph SW1.6 kmh SW -- 29.83 in1010.2 mb 0.01 in0.3 mm 0.00 in0.0 mm 0.10 in2.5 mm
05:00 PM 41.5°F5.3°C 37.9°F3.3°C 87% 3.0 mph W4.8 kmh W -- 29.83 in1010.2 mb 0.01 in0.3 mm 0.00 in0.0 mm 0.10 in2.5 mm
05:05 PM 41.5°F5.3°C 37.9°F3.3°C 87% 2.0 mph SW3.2 kmh SW -- 29.82 in1009.8 mb 0.01 in0.3 mm 0.00 in0.0 mm 0.10 in2.5 mm
05:10 PM 41.4°F5.2°C 37.6°F3.1°C 86% 2.0 mph WSW3.2 kmh WSW 5.0 mph8.0 kmh 29.83 in1010.2 mb 0.01 in0.3 mm 0.00 in0.0 mm 0.10 in2.5 mm
05:15 PM 41.2°F5.1°C 37.6°F3.1°C 87% 3.0 mph WSW4.8 kmh WSW -- 29.83 in1010.2 mb 0.01 in0.3 mm 0.00 in0.0 mm 0.10 in2.5 mm
05:20 PM 41.1°F5.1°C 37.6°F3.1°C 87% 2.0 mph WSW3.2 kmh WSW -- 29.83 in1010.2 mb 0.01 in0.3 mm 0.00 in0.0 mm 0.10 in2.5 mm
05:25 PM 40.9°F4.9°C 37.2°F2.9°C 87% 4.0 mph WSW6.4 kmh WSW -- 29.83 in1010.2 mb 0.01 in0.3 mm 0.00 in0.0 mm 0.10 in2.5 mm
05:30 PM 40.7°F4.8°C 37.4°F3.0°C 88% 3.0 mph WSW4.8 kmh WSW -- 29.82 in1009.8 mb 0.00 in0.0 mm 0.00 in0.0 mm 0.10 in2.5 mm
05:35 PM 40.6°F4.8°C 37.4°F3.0°C 88% 4.0 mph WSW6.4 kmh WSW 6.0 mph9.7 kmh 29.82 in1009.8 mb 0.00 in0.0 mm 0.00 in0.0 mm 0.10 in2.5 mm
05:40 PM 40.5°F4.7°C 37.2°F2.9°C 88% 3.0 mph WSW4.8 kmh WSW -- 29.82 in1009.8 mb 0.00 in0.0 mm 0.00 in0.0 mm 0.10 in2.5 mm
05:45 PM 40.4°F4.7°C 37.2°F2.9°C 88% 3.0 mph WSW4.8 kmh WSW -- 29.82 in1009.8 mb 0.00 in0.0 mm 0.00 in0.0 mm 0.10 in2.5 mm
05:50 PM 40.2°F4.6°C 37.0°F2.8°C 88% 3.0 mph WSW4.8 kmh WSW -- 29.82 in1009.8 mb 0.00 in0.0 mm 0.00 in0.0 mm 0.10 in2.5 mm
05:55 PM 40.0°F4.4°C 36.7°F2.6°C 88% 3.0 mph WSW4.8 kmh WSW -- 29.82 in1009.8 mb 0.00 in0.0 mm 0.00 in0.0 mm 0.10 in2.5 mm
06:00 PM 39.7°F4.3°C 36.7°F2.6°C 89% 4.0 mph SW6.4 kmh SW 5.0 mph8.0 kmh 29.82 in1009.8 mb 0.00 in0.0 mm 0.00 in0.0 mm 0.10 in2.5 mm
06:05 PM 39.5°F4.2°C 36.7°F2.6°C 89% 2.0 mph WSW3.2 kmh WSW -- 29.82 in1009.8 mb 0.00 in0.0 mm 0.00 in0.0 mm 0.10 in2.5 mm
06:10 PM 39.4°F4.1°C 36.5°F2.5°C 89% 3.0 mph WSW4.8 kmh WSW -- 29.82 in1009.8 mb 0.00 in0.0 mm 0.00 in0.0 mm 0.10 in2.5 mm
06:15 PM 39.3°F4.1°C 36.5°F2.5°C 89% 4.0 mph WSW6.4 kmh WSW -- 29.82 in1009.8 mb 0.00 in0.0 mm 0.00 in0.0 mm 0.10 in2.5 mm
06:20 PM 39.4°F4.1°C 36.5°F2.5°C 89% 5.0 mph W8.0 kmh W -- 29.82 in1009.8 mb 0.00 in0.0 mm 0.00 in0.0 mm 0.10 in2.5 mm
06:25 PM 39.3°F4.1°C 36.5°F2.5°C 89% 6.0 mph W9.7 kmh W 9.0 mph14.5 kmh 29.82 in1009.8 mb 0.00 in0.0 mm 0.00 in0.0 mm 0.10 in2.5 mm
06:30 PM 39.3°F4.1°C 36.1°F2.3°C 88% 5.0 mph W8.0 kmh W -- 29.82 in1009.8 mb 0.00 in0.0 mm 0.00 in0.0 mm 0.10 in2.5 mm
06:35 PM 39.3°F4.1°C 36.1°F2.3°C 88% 4.0 mph W6.4 kmh W -- 29.82 in1009.8 mb 0.00 in0.0 mm 0.00 in0.0 mm 0.10 in2.5 mm
06:40 PM 39.1°F3.9°C 36.1°F2.3°C 89% 7.0 mph W11.3 kmh W -- 29.82 in1009.8 mb 0.00 in0.0 mm 0.00 in0.0 mm 0.10 in2.5 mm
06:45 PM 38.9°F3.8°C 36.0°F2.2°C 89% 7.0 mph WSW11.3 kmh WSW -- 29.82 in1009.8 mb 0.00 in0.0 mm 0.00 in0.0 mm 0.10 in2.5 mm
06:50 PM 38.8°F3.8°C 36.0°F2.2°C 89% 5.0 mph W8.0 kmh W 8.0 mph12.9 kmh 29.82 in1009.8 mb 0.00 in0.0 mm 0.00 in0.0 mm 0.10 in2.5 mm
06:55 PM 38.6°F3.7°C 35.8°F2.1°C 89% 5.0 mph WSW8.0 kmh WSW -- 29.82 in1009.8 mb 0.00 in0.0 mm 0.00 in0.0 mm 0.10 in2.5 mm
07:00 PM 38.6°F3.7°C 35.8°F2.1°C 89% 5.0 mph WSW8.0 kmh WSW -- 29.82 in1009.8 mb 0.00 in0.0 mm 0.00 in0.0 mm 0.10 in2.5 mm
07:05 PM 38.6°F3.7°C 35.8°F2.1°C 89% 5.0 mph WSW8.0 kmh WSW -- 29.82 in1009.8 mb 0.00 in0.0 mm 0.00 in0.0 mm 0.10 in2.5 mm
07:10 PM 38.6°F3.7°C 35.8°F2.1°C 89% 5.0 mph W8.0 kmh W -- 29.82 in1009.8 mb 0.00 in0.0 mm 0.00 in0.0 mm 0.10 in2.5 mm
07:15 PM 38.6°F3.7°C 35.8°F2.1°C 89% 6.0 mph W9.7 kmh W 9.0 mph14.5 kmh 29.82 in1009.8 mb 0.00 in0.0 mm 0.00 in0.0 mm 0.10 in2.5 mm
07:20 PM 38.5°F3.6°C 35.6°F2.0°C 89% 3.0 mph WSW4.8 kmh WSW -- 29.82 in1009.8 mb 0.00 in0.0 mm 0.00 in0.0 mm 0.10 in2.5 mm
07:25 PM 38.5°F3.6°C 35.6°F2.0°C 89% 4.0 mph WSW6.4 kmh WSW -- 29.82 in1009.8 mb 0.00 in0.0 mm 0.00 in0.0 mm 0.10 in2.5 mm
07:30 PM 38.5°F3.6°C 35.6°F2.0°C 89% 5.0 mph W8.0 kmh W -- 29.82 in1009.8 mb 0.00 in0.0 mm 0.00 in0.0 mm 0.10 in2.5 mm
07:35 PM 38.6°F3.7°C 35.8°F2.1°C 89% 5.0 mph W8.0 kmh W -- 29.82 in1009.8 mb 0.00 in0.0 mm 0.00 in0.0 mm 0.10 in2.5 mm
07:40 PM 38.7°F3.7°C 35.8°F2.1°C 89% 5.0 mph WSW8.0 kmh WSW 8.0 mph12.9 kmh 29.81 in1009.5 mb 0.00 in0.0 mm 0.00 in0.0 mm 0.10 in2.5 mm
07:45 PM 38.8°F3.8°C 35.6°F2.0°C 88% 4.0 mph WSW6.4 kmh WSW -- 29.82 in1009.8 mb 0.00 in0.0 mm 0.00 in0.0 mm 0.10 in2.5 mm
07:50 PM 38.7°F3.7°C 35.4°F1.9°C 88% 4.0 mph WSW6.4 kmh WSW -- 29.81 in1009.5 mb 0.00 in0.0 mm 0.00 in0.0 mm 0.10 in2.5 mm
07:55 PM 38.7°F3.7°C 35.8°F2.1°C 89% 6.0 mph W9.7 kmh W -- 29.82 in1009.8 mb 0.00 in0.0 mm 0.00 in0.0 mm 0.10 in2.5 mm
08:00 PM 38.8°F3.8°C 35.6°F2.0°C 88% 6.0 mph W9.7 kmh W -- 29.82 in1009.8 mb 0.00 in0.0 mm 0.00 in0.0 mm 0.10 in2.5 mm
08:05 PM 38.8°F3.8°C 35.6°F2.0°C 88% 4.0 mph WSW6.4 kmh WSW 9.0 mph14.5 kmh 29.82 in1009.8 mb 0.00 in0.0 mm 0.00 in0.0 mm 0.10 in2.5 mm
08:10 PM 38.8°F3.8°C 35.6°F2.0°C 88% 5.0 mph W8.0 kmh W -- 29.81 in1009.5 mb 0.00 in0.0 mm 0.00 in0.0 mm 0.10 in2.5 mm
08:15 PM 38.7°F3.7°C 35.4°F1.9°C 88% 7.0 mph W11.3 kmh W -- 29.81 in1009.5 mb 0.00 in0.0 mm 0.00 in0.0 mm 0.10 in2.5 mm
08:20 PM 38.8°F3.8°C 35.6°F2.0°C 88% 6.0 mph W9.7 kmh W -- 29.81 in1009.5 mb 0.00 in0.0 mm 0.00 in0.0 mm 0.10 in2.5 mm
08:25 PM 38.8°F3.8°C 35.6°F2.0°C 88% 9.0 mph W14.5 kmh W -- 29.81 in1009.5 mb 0.00 in0.0 mm 0.00 in0.0 mm 0.10 in2.5 mm
08:30 PM 38.9°F3.8°C 35.6°F2.0°C 88% 5.0 mph WSW8.0 kmh WSW 10.0 mph16.1 kmh 29.81 in1009.5 mb 0.00 in0.0 mm 0.00 in0.0 mm 0.10 in2.5 mm
08:35 PM 39.1°F3.9°C 35.8°F2.1°C 88% 6.0 mph W9.7 kmh W -- 29.81 in1009.5 mb 0.00 in0.0 mm 0.00 in0.0 mm 0.10 in2.5 mm
08:40 PM 39.1°F3.9°C 35.8°F2.1°C 88% 4.0 mph WSW6.4 kmh WSW -- 29.81 in1009.5 mb 0.00 in0.0 mm 0.00 in0.0 mm 0.10 in2.5 mm
08:45 PM 38.9°F3.8°C 35.6°F2.0°C 88% 3.0 mph WSW4.8 kmh WSW -- 29.81 in1009.5 mb 0.00 in0.0 mm 0.00 in0.0 mm 0.10 in2.5 mm
08:50 PM 38.9°F3.8°C 35.6°F2.0°C 88% 2.0 mph WSW3.2 kmh WSW -- 29.81 in1009.5 mb 0.00 in0.0 mm 0.00 in0.0 mm 0.10 in2.5 mm
08:55 PM 38.9°F3.8°C 35.6°F2.0°C 88% Calm Calm 6.0 mph9.7 kmh 29.81 in1009.5 mb 0.00 in0.0 mm 0.00 in0.0 mm 0.10 in2.5 mm
09:00 PM 38.8°F3.8°C 35.6°F2.0°C 88% 1.0 mph WSW1.6 kmh WSW -- 29.81 in1009.5 mb 0.00 in0.0 mm 0.00 in0.0 mm 0.10 in2.5 mm
09:05 PM 38.7°F3.7°C 35.8°F2.1°C 89% 4.0 mph SW6.4 kmh SW -- 29.81 in1009.5 mb 0.00 in0.0 mm 0.00 in0.0 mm 0.10 in2.5 mm
09:10 PM 38.7°F3.7°C 35.8°F2.1°C 89% 3.0 mph SW4.8 kmh SW -- 29.81 in1009.5 mb 0.00 in0.0 mm 0.00 in0.0 mm 0.10 in2.5 mm
09:15 PM 38.6°F3.7°C 35.8°F2.1°C 89% 2.0 mph SW3.2 kmh SW -- 29.81 in1009.5 mb 0.00 in0.0 mm 0.00 in0.0 mm 0.10 in2.5 mm
09:20 PM 38.4°F3.6°C 35.6°F2.0°C 89% 4.0 mph SW6.4 kmh SW 7.0 mph11.3 kmh 29.80 in1009.1 mb 0.00 in0.0 mm 0.00 in0.0 mm 0.10 in2.5 mm
09:25 PM 38.4°F3.6°C 35.8°F2.1°C 90% 2.0 mph SW3.2 kmh SW -- 29.81 in1009.5 mb 0.00 in0.0 mm 0.00 in0.0 mm 0.10 in2.5 mm
09:30 PM 38.4°F3.6°C 35.8°F2.1°C 90% 4.0 mph WSW6.4 kmh WSW -- 29.81 in1009.5 mb 0.00 in0.0 mm 0.00 in0.0 mm 0.10 in2.5 mm
09:35 PM 38.7°F3.7°C 36.0°F2.2°C 90% 6.0 mph W9.7 kmh W -- 29.81 in1009.5 mb 0.00 in0.0 mm 0.00 in0.0 mm 0.10 in2.5 mm
09:40 PM 39.0°F3.9°C 36.1°F2.3°C 89% 4.0 mph WSW6.4 kmh WSW -- 29.81 in1009.5 mb 0.00 in0.0 mm 0.00 in0.0 mm 0.10 in2.5 mm
09:45 PM 39.1°F3.9°C 36.1°F2.3°C 89% 6.0 mph W9.7 kmh W 8.0 mph12.9 kmh 29.81 in1009.5 mb 0.00 in0.0 mm 0.00 in0.0 mm 0.10 in2.5 mm
09:50 PM 39.1°F3.9°C 36.1°F2.3°C 89% 3.0 mph W4.8 kmh W -- 29.81 in1009.5 mb 0.00 in0.0 mm 0.00 in0.0 mm 0.10 in2.5 mm
09:55 PM 38.9°F3.8°C 36.0°F2.2°C 89% 2.0 mph WSW3.2 kmh WSW -- 29.80 in1009.1 mb 0.00 in0.0 mm 0.00 in0.0 mm 0.10 in2.5 mm
10:00 PM 38.8°F3.8°C 36.0°F2.2°C 89% 7.0 mph W11.3 kmh W -- 29.81 in1009.5 mb 0.00 in0.0 mm 0.00 in0.0 mm 0.10 in2.5 mm
10:05 PM 38.8°F3.8°C 36.1°F2.3°C 90% 8.0 mph W12.9 kmh W -- 29.80 in1009.1 mb 0.00 in0.0 mm 0.00 in0.0 mm 0.10 in2.5 mm
10:10 PM 38.9°F3.8°C 36.0°F2.2°C 89% 5.0 mph W8.0 kmh W 8.0 mph12.9 kmh 29.80 in1009.1 mb 0.00 in0.0 mm 0.00 in0.0 mm 0.10 in2.5 mm
10:15 PM 38.8°F3.8°C 36.0°F2.2°C 89% 2.0 mph SW3.2 kmh SW -- 29.80 in1009.1 mb 0.00 in0.0 mm 0.00 in0.0 mm 0.10 in2.5 mm
10:20 PM 38.7°F3.7°C 35.8°F2.1°C 89% 2.0 mph SW3.2 kmh SW -- 29.80 in1009.1 mb 0.00 in0.0 mm 0.00 in0.0 mm 0.10 in2.5 mm
10:25 PM 38.7°F3.7°C 36.0°F2.2°C 90% 3.0 mph SW4.8 kmh SW -- 29.80 in1009.1 mb 0.00 in0.0 mm 0.00 in0.0 mm 0.10 in2.5 mm
10:30 PM 38.6°F3.7°C 36.0°F2.2°C 90% 3.0 mph W4.8 kmh W -- 29.80 in1009.1 mb 0.00 in0.0 mm 0.00 in0.0 mm 0.10 in2.5 mm
10:35 PM 38.6°F3.7°C 36.0°F2.2°C 90% 2.0 mph WSW3.2 kmh WSW 6.0 mph9.7 kmh 29.81 in1009.5 mb 0.00 in0.0 mm 0.00 in0.0 mm 0.10 in2.5 mm
10:40 PM 38.4°F3.6°C 35.8°F2.1°C 90% 4.0 mph W6.4 kmh W -- 29.81 in1009.5 mb 0.00 in0.0 mm 0.00 in0.0 mm 0.10 in2.5 mm
10:45 PM 38.4°F3.6°C 35.8°F2.1°C 90% 4.0 mph W6.4 kmh W -- 29.81 in1009.5 mb 0.00 in0.0 mm 0.00 in0.0 mm 0.10 in2.5 mm
10:50 PM 38.2°F3.4°C 35.4°F1.9°C 90% 4.0 mph WSW6.4 kmh WSW -- 29.81 in1009.5 mb 0.00 in0.0 mm 0.00 in0.0 mm 0.10 in2.5 mm
10:55 PM 38.0°F3.3°C 35.2°F1.8°C 90% 3.0 mph SW4.8 kmh SW -- 29.81 in1009.5 mb 0.00 in0.0 mm 0.00 in0.0 mm 0.10 in2.5 mm
11:00 PM 37.8°F3.2°C 35.1°F1.7°C 90% 3.0 mph WSW4.8 kmh WSW 7.0 mph11.3 kmh 29.81 in1009.5 mb 0.00 in0.0 mm 0.00 in0.0 mm 0.11 in2.8 mm
11:05 PM 37.5°F3.1°C 34.9°F1.6°C 90% 4.0 mph WSW6.4 kmh WSW -- 29.81 in1009.5 mb 0.00 in0.0 mm 0.00 in0.0 mm 0.11 in2.8 mm
11:10 PM 37.3°F2.9°C 34.5°F1.4°C 90% 5.0 mph W8.0 kmh W -- 29.81 in1009.5 mb 0.00 in0.0 mm 0.00 in0.0 mm 0.11 in2.8 mm
11:15 PM 37.2°F2.9°C 34.5°F1.4°C 90% 7.0 mph W11.3 kmh W -- 29.81 in1009.5 mb 0.00 in0.0 mm 0.00 in0.0 mm 0.11 in2.8 mm
11:20 PM 37.5°F3.1°C 35.2°F1.8°C 91% 5.0 mph WSW8.0 kmh WSW -- 29.81 in1009.5 mb 0.00 in0.0 mm 0.00 in0.0 mm 0.11 in2.8 mm
11:25 PM 37.3°F2.9°C 34.5°F1.4°C 90% 6.0 mph W9.7 kmh W 9.0 mph14.5 kmh 29.81 in1009.5 mb 0.00 in0.0 mm 0.00 in0.0 mm 0.11 in2.8 mm
11:30 PM 37.2°F2.9°C 34.5°F1.4°C 90% 8.0 mph W12.9 kmh W -- 29.81 in1009.5 mb 0.00 in0.0 mm 0.00 in0.0 mm 0.11 in2.8 mm
11:35 PM 37.2°F2.9°C 34.5°F1.4°C 90% 5.0 mph WSW8.0 kmh WSW -- 29.81 in1009.5 mb 0.00 in0.0 mm 0.00 in0.0 mm 0.11 in2.8 mm
11:40 PM 37.0°F2.8°C 34.3°F1.3°C 90% 5.0 mph WSW8.0 kmh WSW -- 29.80 in1009.1 mb 0.00 in0.0 mm 0.00 in0.0 mm 0.11 in2.8 mm
11:45 PM 37.0°F2.8°C 34.3°F1.3°C 90% 4.0 mph W6.4 kmh W -- 29.81 in1009.5 mb 0.00 in0.0 mm 0.00 in0.0 mm 0.11 in2.8 mm
11:50 PM 37.1°F2.8°C 34.3°F1.3°C 90% 6.0 mph WSW9.7 kmh WSW 9.0 mph14.5 kmh 29.81 in1009.5 mb 0.00 in0.0 mm 0.00 in0.0 mm 0.11 in2.8 mm
11:55 PM 37.3°F2.9°C 34.5°F1.4°C 90% 6.0 mph W9.7 kmh W -- 29.81 in1009.5 mb 0.00 in0.0 mm 0.00 in0.0 mm 0.11 in2.8 mm